Kenneth, Minnesota
Current Conditions -  °F | °C
As of 7:35 PM on Thursday 27 Nov 2014 (Local Time) from KLYV Reporting Station
Overcast Overcast  
Wind Chill:   Ceiling: 8500
Heat Index: 14°   Visibility: 10mi
Dew Point:   Wind: 13mph
Humidity: 67%   Direction: 150°SSE
Pressure: 30.22"   Gusts: NA
Location:  43.75°N, 96.07°W
Report Text: KLYV 280135Z AUTO 15011KT 10SM BKN085 OVC110 M10/M15 A3022 RMK AO2
Loading
Personal Weather Stations






























Interactive Weather Map New forecast layout! Learn more

10-Day Weather Forecast

Advertisements
Track Severe Weather on mobile